Time;durP1;ratioP1;P1;durP2;ratioP2;P2;SDS_P1;SDS_P2;PMS_P1;PMS_P2;Temp;Humidity;BMP_temperature;BMP_pressure;BME280_temperature;BME280_humidity;BME280_pressure;Samples;Min_cycle;Max_cycle;Signal;HPM_P1;HPM_P2
2023/07/08 00:01:11;;;;;;;5.28;2.33;;;17.90;99.90;;;;;;5041520;28;20033;-79
2023/07/08 00:03:37;;;;;;;4.30;2.40;;;17.80;99.90;;;;;;5045726;28;20039;-79
2023/07/08 00:06:02;;;;;;;4.20;2.30;;;17.80;99.90;;;;;;5040119;28;20052;-80
2023/07/08 00:08:28;;;;;;;4.45;2.28;;;17.80;99.90;;;;;;5041541;28;20045;-79
2023/07/08 00:10:55;;;;;;;4.18;2.08;;;17.70;99.90;;;;;;5043113;28;20045;-78
2023/07/08 00:13:21;;;;;;;4.57;2.63;;;17.70;99.90;;;;;;5045088;28;20049;-79
2023/07/08 00:15:46;;;;;;;6.20;2.63;;;17.70;99.90;;;;;;5045380;28;20809;-80
2023/07/08 00:18:17;;;;;;;3.97;2.10;;;17.60;99.90;;;;;;5045887;28;20404;-80
2023/07/08 00:20:48;;;;;;;6.07;2.40;;;17.60;99.90;;;;;;5046550;28;20045;-80
2023/07/08 00:23:14;;;;;;;5.72;2.63;;;17.50;99.90;;;;;;5046793;28;20041;-78
2023/07/08 00:25:41;;;;;;;6.35;2.65;;;17.50;99.90;;;;;;5044224;28;20049;-79
2023/07/08 00:28:16;;;;;;;6.63;2.58;;;17.40;99.90;;;;;;5042347;28;20041;-78
2023/07/08 00:30:42;;;;;;;2.85;2.30;;;17.40;99.90;;;;;;5044190;28;20389;-80
2023/07/08 00:33:07;;;;;;;6.63;2.80;;;17.30;99.90;;;;;;5048774;28;20048;-79
2023/07/08 00:35:43;;;;;;;4.35;2.47;;;17.30;99.90;;;;;;5046716;28;20046;-78
2023/07/08 00:38:28;;;;;;;5.70;2.80;;;17.30;99.90;;;;;;5045257;28;20798;-78
2023/07/08 00:41:11;;;;;;;4.97;2.80;;;17.30;99.90;;;;;;5045000;28;20044;-79
2023/07/08 00:43:46;;;;;;;6.80;3.03;;;17.20;99.90;;;;;;5044629;28;20033;-79
2023/07/08 00:46:24;;;;;;;3.60;2.40;;;17.20;99.90;;;;;;5044475;28;20076;-80
2023/07/08 00:48:51;;;;;;;8.10;2.42;;;17.20;99.90;;;;;;5043423;28;20522;-79
2023/07/08 00:51:19;;;;;;;6.97;2.75;;;17.20;99.90;;;;;;5043088;28;20135;-80
2023/07/08 00:53:45;;;;;;;5.95;2.88;;;17.20;99.90;;;;;;5044849;28;20044;-79
2023/07/08 00:56:18;;;;;;;4.47;2.33;;;17.20;99.90;;;;;;5043195;28;20045;-77
2023/07/08 00:58:56;;;;;;;6.00;2.85;;;17.10;99.90;;;;;;5040453;28;20042;-79
2023/07/08 01:01:22;;;;;;;7.20;3.75;;;17.10;99.90;;;;;;5047462;28;20058;-79
2023/07/08 01:03:54;;;;;;;10.82;2.70;;;17.10;99.90;;;;;;5045887;28;20055;-79
2023/07/08 01:06:21;;;;;;;4.35;2.58;;;17.10;99.90;;;;;;5043416;28;20052;-77
2023/07/08 01:08:52;;;;;;;6.20;3.42;;;17.10;99.90;;;;;;5044381;28;20049;-76
2023/07/08 01:11:21;;;;;;;3.97;2.45;;;17.10;99.90;;;;;;5045144;28;20053;-79
2023/07/08 01:13:49;;;;;;;5.38;3.33;;;17.10;99.90;;;;;;5047883;28;20601;-80
2023/07/08 01:16:15;;;;;;;4.43;2.58;;;17.10;99.90;;;;;;5048635;28;20123;-80
2023/07/08 01:18:41;;;;;;;7.88;2.38;;;17.00;99.90;;;;;;5046027;28;20104;-80
2023/07/08 01:21:28;;;;;;;7.25;2.60;;;17.00;99.90;;;;;;5042214;28;20042;-80
2023/07/08 01:23:54;;;;;;;4.95;2.30;;;17.00;99.90;;;;;;5048651;28;20052;-79
2023/07/08 01:26:24;;;;;;;4.85;2.75;;;17.00;99.90;;;;;;5045256;28;20033;-78
2023/07/08 01:28:50;;;;;;;4.72;3.83;;;17.00;99.90;;;;;;5046528;28;20398;-79
2023/07/08 01:31:16;;;;;;;8.95;3.55;;;17.00;99.90;;;;;;5039379;28;20037;-80
2023/07/08 01:33:42;;;;;;;4.13;2.50;;;16.90;99.90;;;;;;5045030;28;20028;-78
2023/07/08 01:36:12;;;;;;;5.13;2.88;;;16.90;99.90;;;;;;5025023;28;20450;-80
2023/07/08 01:38:39;;;;;;;5.82;3.05;;;16.80;99.90;;;;;;5043542;28;20071;-80
2023/07/08 01:41:05;;;;;;;7.88;3.22;;;16.80;99.90;;;;;;5045229;28;20040;-80
2023/07/08 01:43:31;;;;;;;6.05;3.53;;;16.80;99.90;;;;;;5041329;28;20125;-79
2023/07/08 01:46:00;;;;;;;4.05;3.00;;;16.70;99.90;;;;;;5043708;28;20080;-77
2023/07/08 01:48:33;;;;;;;5.28;3.03;;;16.80;99.90;;;;;;5031234;28;20507;-80
2023/07/08 01:51:06;;;;;;;8.05;2.42;;;16.80;99.90;;;;;;5043511;28;20425;-77
2023/07/08 01:53:36;;;;;;;4.72;2.60;;;16.70;99.90;;;;;;5041585;28;20060;-80
2023/07/08 01:56:04;;;;;;;5.30;3.10;;;16.60;99.90;;;;;;5043824;28;20041;-79
2023/07/08 01:58:29;;;;;;;4.45;3.30;;;16.60;99.90;;;;;;5042614;28;20096;-79
2023/07/08 02:00:55;;;;;;;4.68;2.88;;;16.60;99.90;;;;;;5041233;28;20037;-79
2023/07/08 02:03:21;;;;;;;3.45;2.33;;;16.60;99.90;;;;;;5040748;28;20053;-80
2023/07/08 02:05:47;;;;;;;6.57;2.75;;;16.60;99.90;;;;;;5043901;28;20107;-80
2023/07/08 02:08:12;;;;;;;5.13;2.40;;;16.60;99.90;;;;;;5041494;28;20045;-80
2023/07/08 02:10:42;;;;;;;4.32;2.95;;;16.60;99.90;;;;;;5044055;28;20052;-78
2023/07/08 02:13:08;;;;;;;3.22;2.75;;;16.50;99.90;;;;;;5045216;28;20049;-79
2023/07/08 02:15:34;;;;;;;4.15;3.30;;;16.50;99.90;;;;;;5049147;28;20041;-79
2023/07/08 02:17:59;;;;;;;4.70;3.78;;;16.50;99.90;;;;;;5037994;28;20040;-79
2023/07/08 02:20:25;;;;;;;7.43;3.53;;;16.50;99.90;;;;;;5044709;28;20091;-79
2023/07/08 02:22:50;;;;;;;7.28;3.63;;;16.40;99.90;;;;;;5041989;28;20098;-79
2023/07/08 02:25:16;;;;;;;6.22;3.72;;;16.30;99.90;;;;;;5042213;28;20052;-78
2023/07/08 02:27:42;;;;;;;8.15;3.42;;;16.30;99.90;;;;;;5040522;28;20039;-78
2023/07/08 02:30:09;;;;;;;7.18;3.42;;;16.20;99.90;;;;;;5043179;28;20076;-79
2023/07/08 02:32:38;;;;;;;8.40;3.40;;;16.20;99.90;;;;;;5040695;28;20049;-78
2023/07/08 02:35:05;;;;;;;5.90;3.28;;;16.20;99.90;;;;;;5041994;28;20116;-79
2023/07/08 02:37:32;;;;;;;9.77;3.88;;;16.10;99.90;;;;;;5041771;28;20045;-80
2023/07/08 02:39:58;;;;;;;7.45;3.60;;;16.10;99.90;;;;;;5043798;28;20080;-79
2023/07/08 02:42:23;;;;;;;5.25;3.15;;;16.10;99.90;;;;;;5042212;28;20049;-78
2023/07/08 02:44:49;;;;;;;6.57;3.47;;;16.10;99.90;;;;;;5043328;28;20059;-80
2023/07/08 02:47:15;;;;;;;5.28;3.50;;;16.00;99.90;;;;;;5042299;28;20083;-80
2023/07/08 02:49:40;;;;;;;5.97;3.40;;;16.00;99.90;;;;;;5042458;28;20042;-79
2023/07/08 02:52:06;;;;;;;7.78;3.53;;;16.00;99.90;;;;;;5041945;28;20033;-79
2023/07/08 02:54:32;;;;;;;5.57;2.95;;;16.00;99.90;;;;;;5038543;28;20045;-80
2023/07/08 02:56:57;;;;;;;5.78;3.28;;;16.00;99.90;;;;;;5039492;28;20040;-79
2023/07/08 02:59:23;;;;;;;6.93;3.63;;;16.00;99.90;;;;;;5044251;28;20033;-80
2023/07/08 03:01:49;;;;;;;4.55;3.42;;;16.00;99.90;;;;;;5040137;28;20051;-79
2023/07/08 03:04:15;;;;;;;5.05;3.65;;;15.90;99.90;;;;;;5037122;28;20076;-77
2023/07/08 03:06:42;;;;;;;5.05;3.60;;;16.00;99.90;;;;;;5042519;28;20725;-79
2023/07/08 03:09:08;;;;;;;5.47;3.40;;;16.00;99.90;;;;;;5041905;28;20034;-79
2023/07/08 03:11:34;;;;;;;8.18;3.10;;;16.00;99.90;;;;;;5044281;28;20037;-80
2023/07/08 03:14:00;;;;;;;4.72;3.30;;;15.90;99.90;;;;;;5039135;28;20487;-79
2023/07/08 03:16:25;;;;;;;4.90;3.60;;;15.90;99.90;;;;;;5040531;28;20064;-79
2023/07/08 03:18:51;;;;;;;5.85;3.55;;;15.90;99.90;;;;;;5041279;28;20148;-79
2023/07/08 03:21:18;;;;;;;4.00;3.50;;;15.90;99.90;;;;;;5039689;28;20046;-77
2023/07/08 03:23:44;;;;;;;5.45;3.45;;;15.90;99.90;;;;;;5041369;28;20074;-79
2023/07/08 03:26:16;;;;;;;5.95;4.30;;;15.80;99.90;;;;;;5045393;28;20045;-77
2023/07/08 03:28:41;;;;;;;5.72;3.33;;;15.80;99.90;;;;;;5041511;28;20047;-79
2023/07/08 03:31:09;;;;;;;6.50;3.60;;;15.80;99.90;;;;;;5041155;28;20037;-80
2023/07/08 03:33:35;;;;;;;5.70;4.05;;;15.70;99.90;;;;;;5044203;28;20098;-79
2023/07/08 03:36:02;;;;;;;7.55;4.07;;;15.70;99.90;;;;;;5042715;28;20735;-80
2023/07/08 03:38:28;;;;;;;5.05;3.78;;;15.70;99.90;;;;;;5045241;28;20057;-80
2023/07/08 03:40:53;;;;;;;4.50;3.58;;;15.70;99.90;;;;;;5040046;28;20065;-79
2023/07/08 03:43:19;;;;;;;8.73;3.67;;;15.70;99.90;;;;;;5042052;28;20095;-79
2023/07/08 03:45:45;;;;;;;5.40;3.20;;;15.70;99.90;;;;;;5041488;28;20036;-78
2023/07/08 03:48:11;;;;;;;7.68;3.45;;;15.70;99.90;;;;;;5041997;28;20069;-77
2023/07/08 03:50:38;;;;;;;8.02;3.75;;;15.70;99.90;;;;;;5043249;28;20041;-80
2023/07/08 03:53:04;;;;;;;5.95;3.72;;;15.60;99.90;;;;;;5030683;28;20098;-80
2023/07/08 03:55:30;;;;;;;4.60;3.83;;;15.70;99.90;;;;;;5045289;28;20443;-79
2023/07/08 03:57:55;;;;;;;7.03;3.70;;;15.60;99.90;;;;;;5041366;28;20864;-79
2023/07/08 04:00:21;;;;;;;5.30;3.83;;;15.70;99.90;;;;;;5044001;28;20041;-79
2023/07/08 04:02:47;;;;;;;8.13;3.65;;;15.80;99.90;;;;;;5046773;28;20033;-80
2023/07/08 04:05:21;;;;;;;4.72;3.42;;;15.80;99.90;;;;;;5046130;28;20511;-79
2023/07/08 04:07:47;;;;;;;4.97;4.15;;;15.80;99.90;;;;;;5040205;28;20041;-80
2023/07/08 04:10:13;;;;;;;6.05;3.80;;;15.80;99.90;;;;;;5045585;28;20125;-80
2023/07/08 04:12:40;;;;;;;4.40;3.60;;;15.80;99.90;;;;;;5042086;28;20045;-80
2023/07/08 04:15:08;;;;;;;6.47;4.00;;;15.90;99.90;;;;;;5045080;28;20042;-79
2023/07/08 04:17:40;;;;;;;6.03;3.42;;;15.90;99.90;;;;;;5042072;28;20044;-77
2023/07/08 04:20:08;;;;;;;5.20;3.42;;;16.00;99.90;;;;;;5044872;28;20041;-79
2023/07/08 04:22:34;;;;;;;10.48;4.65;;;16.10;99.90;;;;;;5043008;28;20120;-78
2023/07/08 04:24:59;;;;;;;7.35;3.20;;;16.30;99.90;;;;;;5046687;28;20096;-80
2023/07/08 04:27:25;;;;;;;5.72;3.20;;;16.60;99.90;;;;;;5042065;28;20653;-80
2023/07/08 04:29:50;;;;;;;5.97;3.55;;;17.40;99.90;;;;;;5046687;28;20033;-80
2023/07/08 04:32:16;;;;;;;5.55;2.85;;;18.20;99.90;;;;;;5048147;28;20050;-79
2023/07/08 04:34:41;;;;;;;6.70;3.45;;;19.10;99.90;;;;;;5045465;28;20069;-79
2023/07/08 04:37:10;;;;;;;6.20;2.75;;;19.50;99.90;;;;;;5044145;28;20068;-79
2023/07/08 04:39:36;;;;;;;4.20;2.83;;;20.20;99.90;;;;;;5046709;28;20033;-80
2023/07/08 04:42:02;;;;;;;5.47;2.78;;;20.90;99.90;;;;;;5045886;28;20625;-80
2023/07/08 04:44:27;;;;;;;3.60;2.63;;;21.40;99.90;;;;;;5043882;28;20102;-80
2023/07/08 04:46:56;;;;;;;3.80;3.00;;;21.70;99.90;;;;;;5043391;28;20154;-80
2023/07/08 04:49:22;;;;;;;4.28;3.03;;;22.00;99.90;;;;;;5044648;28;20475;-79
2023/07/08 04:51:48;;;;;;;4.53;3.30;;;21.80;99.90;;;;;;5044603;28;20521;-80
2023/07/08 04:54:14;;;;;;;4.38;2.55;;;21.80;99.90;;;;;;5045469;28;20033;-80
2023/07/08 04:56:48;;;;;;;5.45;2.70;;;22.10;99.90;;;;;;5041795;28;20457;-79
2023/07/08 04:59:20;;;;;;;3.05;2.47;;;22.40;99.90;;;;;;5044306;28;20101;-80
2023/07/08 05:01:45;;;;;;;5.05;3.00;;;22.90;99.90;;;;;;5043800;28;20128;-80
2023/07/08 05:04:14;;;;;;;4.80;2.72;;;23.30;99.90;;;;;;5045108;28;20167;-79
2023/07/08 05:06:39;;;;;;;3.50;2.55;;;23.70;99.90;;;;;;5041084;28;20037;-78
2023/07/08 05:09:05;;;;;;;5.45;2.50;;;23.40;99.90;;;;;;5049553;28;20038;-78
2023/07/08 05:11:31;;;;;;;3.92;2.38;;;23.10;99.50;;;;;;5045332;28;20037;-80
2023/07/08 05:13:57;;;;;;;3.72;2.50;;;22.60;99.90;;;;;;5042885;28;20037;-79
2023/07/08 05:16:22;;;;;;;5.18;2.47;;;21.90;99.90;;;;;;5044003;28;20049;-79
2023/07/08 05:18:48;;;;;;;4.53;2.80;;;21.40;99.90;;;;;;5030849;28;20033;-78
2023/07/08 05:21:15;;;;;;;7.25;2.90;;;21.30;99.90;;;;;;5041159;28;20046;-77
2023/07/08 05:23:40;;;;;;;5.25;3.00;;;21.30;99.90;;;;;;5043270;28;20131;-79
2023/07/08 05:26:07;;;;;;;5.72;2.63;;;21.90;99.90;;;;;;5040993;28;20072;-78
2023/07/08 05:28:34;;;;;;;4.40;2.65;;;22.90;99.90;;;;;;5042794;28;20061;-81
2023/07/08 05:30:59;;;;;;;5.53;3.08;;;23.30;99.60;;;;;;5041725;28;20037;-81
2023/07/08 05:33:27;;;;;;;5.53;2.50;;;24.30;99.00;;;;;;5039576;28;20044;-80
2023/07/08 05:35:53;;;;;;;3.08;2.45;;;24.30;98.20;;;;;;5044379;28;20140;-79
2023/07/08 05:38:19;;;;;;;4.25;2.72;;;24.10;98.00;;;;;;5042216;28;20052;-81
2023/07/08 05:40:49;;;;;;;5.40;2.60;;;23.60;98.60;;;;;;5040231;28;20049;-81
2023/07/08 05:43:16;;;;;;;3.63;2.38;;;23.20;99.10;;;;;;5038158;28;20028;-78
2023/07/08 05:45:42;;;;;;;3.97;2.58;;;23.10;99.20;;;;;;5040285;28;20041;-80
2023/07/08 05:48:07;;;;;;;4.13;2.97;;;22.60;99.50;;;;;;5039266;28;20045;-78
2023/07/08 05:50:33;;;;;;;6.80;2.72;;;22.60;99.90;;;;;;5041465;28;20049;-75
2023/07/08 05:52:58;;;;;;;5.30;2.58;;;22.60;99.90;;;;;;5041592;28;20053;-80
2023/07/08 05:55:24;;;;;;;4.40;2.65;;;22.50;99.90;;;;;;5044982;28;20045;-78
2023/07/08 05:57:49;;;;;;;6.28;3.05;;;22.40;99.90;;;;;;5040503;28;20041;-80
2023/07/08 06:00:15;;;;;;;5.75;3.03;;;22.30;99.90;;;;;;5046874;28;20033;-81
2023/07/08 06:02:40;;;;;;;3.78;2.47;;;22.50;99.90;;;;;;5041681;28;20037;-80
2023/07/08 06:05:06;;;;;;;9.38;3.13;;;22.40;99.90;;;;;;5043077;28;20049;-79
2023/07/08 06:07:32;;;;;;;5.68;2.75;;;22.40;99.90;;;;;;5041167;28;20040;-77
2023/07/08 06:09:59;;;;;;;4.35;2.50;;;22.40;99.90;;;;;;5040717;28;20055;-80
2023/07/08 06:12:25;;;;;;;5.80;3.13;;;22.30;99.90;;;;;;5046070;28;20503;-78
2023/07/08 06:14:51;;;;;;;6.07;2.67;;;22.10;99.90;;;;;;5043935;28;20048;-80
2023/07/08 06:17:17;;;;;;;4.85;2.08;;;22.20;99.90;;;;;;5041129;28;20100;-80
2023/07/08 06:19:43;;;;;;;3.58;2.33;;;22.10;99.90;;;;;;5039332;28;20059;-80
2023/07/08 06:22:08;;;;;;;5.60;3.10;;;22.30;99.90;;;;;;5041993;28;20152;-79
2023/07/08 06:24:34;;;;;;;6.07;3.10;;;22.50;99.90;;;;;;5044646;28;20033;-79
2023/07/08 06:27:00;;;;;;;5.18;3.20;;;22.50;99.90;;;;;;5025609;28;20051;-78
2023/07/08 06:29:26;;;;;;;3.90;2.20;;;22.70;99.90;;;;;;5040271;28;20561;-81
2023/07/08 06:31:51;;;;;;;2.58;2.05;;;22.60;99.90;;;;;;5038711;28;20030;-81
2023/07/08 06:34:18;;;;;;;8.02;3.38;;;22.70;99.90;;;;;;5043885;28;20491;-81
2023/07/08 06:36:44;;;;;;;5.35;2.53;;;22.70;99.80;;;;;;5044617;28;20048;-82
2023/07/08 06:39:11;;;;;;;6.95;2.30;;;22.90;99.90;;;;;;5043360;28;20056;-79
2023/07/08 06:41:37;;;;;;;6.13;2.45;;;22.90;99.90;;;;;;5043629;28;20068;-81
2023/07/08 06:44:03;;;;;;;3.80;2.28;;;22.90;99.80;;;;;;5041434;28;20075;-80
2023/07/08 06:46:29;;;;;;;3.97;2.25;;;23.00;99.90;;;;;;5044238;28;20115;-81
2023/07/08 06:48:55;;;;;;;2.58;1.98;;;23.10;99.90;;;;;;5044582;28;20606;-81
2023/07/08 06:51:21;;;;;;;8.73;2.50;;;23.30;99.60;;;;;;5040940;28;20752;-80
2023/07/08 06:53:46;;;;;;;5.68;2.60;;;23.20;99.30;;;;;;5041360;28;20072;-80
2023/07/08 06:56:12;;;;;;;3.75;2.30;;;23.40;99.60;;;;;;5044637;28;20044;-81
2023/07/08 06:58:37;;;;;;;5.57;2.60;;;23.50;99.70;;;;;;5025935;28;20045;-81
2023/07/08 07:01:03;;;;;;;5.53;2.42;;;23.60;99.70;;;;;;5045233;28;20051;-80
2023/07/08 07:03:28;;;;;;;5.20;2.13;;;23.60;99.10;;;;;;5041807;28;20033;-81
2023/07/08 07:05:54;;;;;;;6.90;2.90;;;23.80;99.90;;;;;;5040204;28;20120;-79
2023/07/08 07:08:20;;;;;;;6.78;2.40;;;23.80;99.70;;;;;;5040501;28;20092;-81
2023/07/08 07:10:45;;;;;;;4.55;1.75;;;24.00;99.50;;;;;;5039001;28;20120;-81
2023/07/08 07:13:11;;;;;;;5.13;1.90;;;24.10;99.00;;;;;;5040495;28;20992;-81
2023/07/08 07:15:36;;;;;;;5.90;1.88;;;24.10;98.90;;;;;;5041690;28;20059;-80
2023/07/08 07:18:02;;;;;;;4.40;2.25;;;24.20;99.00;;;;;;5041284;28;20312;-81
2023/07/08 07:20:29;;;;;;;5.47;2.50;;;24.20;98.60;;;;;;5055417;28;20120;-79
2023/07/08 07:22:54;;;;;;;8.48;2.08;;;24.40;99.00;;;;;;5036680;28;20282;-81
2023/07/08 07:25:20;;;;;;;3.15;2.28;;;24.40;98.50;;;;;;5044899;28;21741;-81
2023/07/08 07:27:46;;;;;;;7.00;2.15;;;24.60;98.60;;;;;;5037517;28;20049;-80
2023/07/08 07:30:15;;;;;;;5.10;1.98;;;24.30;98.00;;;;;;5029128;28;20155;-80
2023/07/08 07:32:44;;;;;;;4.22;1.70;;;24.30;98.50;;;;;;5039024;28;20049;-79
2023/07/08 07:35:14;;;;;;;10.18;2.95;;;24.50;98.90;;;;;;5040762;28;20048;-79
2023/07/08 07:37:42;;;;;;;3.75;2.35;;;24.60;98.80;;;;;;5038311;28;20037;-80
2023/07/08 07:40:12;;;;;;;2.20;2.00;;;24.70;97.30;;;;;;5037082;28;20087;-79
2023/07/08 07:42:39;;;;;;;11.15;4.30;;;24.70;97.10;;;;;;5035731;28;20113;-79
2023/07/08 07:45:05;;;;;;;5.45;2.95;;;24.90;97.70;;;;;;5039798;28;20086;-80
2023/07/08 07:47:31;;;;;;;5.30;2.50;;;25.00;97.50;;;;;;5039532;28;20050;-80
2023/07/08 07:49:56;;;;;;;3.70;1.98;;;25.10;98.20;;;;;;5038003;28;20034;-80
2023/07/08 07:52:24;;;;;;;5.15;2.80;;;25.30;97.70;;;;;;5040081;28;20048;-78
2023/07/08 07:54:51;;;;;;;2.85;2.10;;;25.30;97.20;;;;;;5037970;28;20045;-79
2023/07/08 07:57:16;;;;;;;5.88;2.47;;;25.30;97.10;;;;;;5037545;28;20060;-77
2023/07/08 07:59:42;;;;;;;4.82;2.50;;;25.10;96.10;;;;;;5037978;28;20034;-79
2023/07/08 08:02:08;;;;;;;9.07;3.95;;;25.20;97.10;;;;;;5035398;28;20037;-77
2023/07/08 08:04:34;;;;;;;5.88;2.10;;;25.20;97.40;;;;;;5038788;28;20053;-78
2023/07/08 08:06:59;;;;;;;6.35;1.92;;;25.40;97.10;;;;;;5038451;28;20510;-78
2023/07/08 08:09:25;;;;;;;3.65;2.00;;;25.50;97.40;;;;;;5020987;28;20128;-78
2023/07/08 08:11:51;;;;;;;5.25;1.77;;;25.60;97.60;;;;;;5035429;28;20057;-77
2023/07/08 08:14:18;;;;;;;3.70;2.30;;;25.80;97.50;;;;;;5035790;28;20048;-77
2023/07/08 08:16:43;;;;;;;3.53;2.20;;;25.70;96.50;;;;;;5033657;28;20563;-77
2023/07/08 08:19:09;;;;;;;3.22;1.98;;;25.80;96.80;;;;;;5035748;28;20132;-77
2023/07/08 08:21:35;;;;;;;6.13;2.28;;;25.80;97.00;;;;;;5034710;28;20128;-77
2023/07/08 08:24:01;;;;;;;6.93;2.90;;;25.90;97.70;;;;;;5036888;28;20044;-80
2023/07/08 08:26:27;;;;;;;6.25;2.05;;;25.90;96.90;;;;;;5039231;28;20044;-77
2023/07/08 08:28:52;;;;;;;4.22;2.28;;;26.20;97.40;;;;;;5038774;28;20545;-77
2023/07/08 08:31:18;;;;;;;7.05;2.60;;;26.30;96.80;;;;;;5037377;28;20081;-78
2023/07/08 08:33:44;;;;;;;2.92;2.40;;;26.40;97.10;;;;;;5034941;28;20045;-77
2023/07/08 08:36:09;;;;;;;3.20;2.28;;;26.10;96.70;;;;;;5041479;28;20029;-80
2023/07/08 08:38:35;;;;;;;4.90;2.60;;;26.10;96.90;;;;;;5033934;28;20044;-78
2023/07/08 08:41:11;;;;;;;2.75;1.67;;;26.30;97.60;;;;;;5039723;28;20036;-78
2023/07/08 08:43:39;;;;;;;9.13;3.22;;;26.40;97.30;;;;;;5038051;28;20116;-80
2023/07/08 08:46:09;;;;;;;2.90;2.20;;;26.40;96.70;;;;;;5045609;28;20045;-77
2023/07/08 08:48:41;;;;;;;7.47;2.70;;;26.40;96.30;;;;;;5042389;28;20057;-79
2023/07/08 08:51:15;;;;;;;3.28;1.85;;;26.50;96.50;;;;;;5041382;28;20045;-78
2023/07/08 08:53:41;;;;;;;4.43;2.03;;;26.60;96.90;;;;;;5041960;28;20091;-78
2023/07/08 08:56:19;;;;;;;4.57;2.10;;;26.80;96.80;;;;;;5039880;28;20819;-78
2023/07/08 08:59:23;;;;;;;4.97;2.60;;;27.00;96.60;;;;;;5041692;28;20049;-78
2023/07/08 09:01:50;;;;;;;3.55;2.17;;;27.00;96.60;;;;;;5044447;28;20502;-80
2023/07/08 09:04:24;;;;;;;4.85;2.25;;;27.10;96.60;;;;;;5042438;28;20041;-77
2023/07/08 09:06:52;;;;;;;4.93;2.35;;;26.90;95.60;;;;;;5039990;28;20052;-79
2023/07/08 09:09:30;;;;;;;4.55;2.70;;;26.80;96.00;;;;;;5042561;28;20045;-80
2023/07/08 09:12:16;;;;;;;2.78;1.88;;;27.00;97.00;;;;;;5039780;28;20071;-79
2023/07/08 09:14:42;;;;;;;5.47;2.38;;;27.30;97.10;;;;;;5042828;28;20052;-80
2023/07/08 09:17:17;;;;;;;6.38;2.58;;;27.10;96.70;;;;;;5044318;28;20049;-79
2023/07/08 09:19:49;;;;;;;3.30;2.30;;;27.20;96.90;;;;;;5039795;28;20412;-80
2023/07/08 09:22:30;;;;;;;3.22;2.17;;;27.20;96.40;;;;;;5038471;28;20547;-79
2023/07/08 09:24:55;;;;;;;5.03;2.35;;;27.20;96.30;;;;;;5058606;28;20033;-79
2023/07/08 09:27:21;;;;;;;6.07;2.28;;;27.30;95.90;;;;;;5040112;28;20183;-79
2023/07/08 09:29:47;;;;;;;5.57;2.10;;;27.50;96.80;;;;;;5039249;28;20041;-79
2023/07/08 09:32:22;;;;;;;6.38;2.22;;;27.40;96.60;;;;;;5039054;28;20079;-79
2023/07/08 09:34:52;;;;;;;9.32;3.42;;;27.60;96.50;;;;;;5044153;28;20036;-80
2023/07/08 09:37:33;;;;;;;2.58;2.10;;;27.70;96.40;;;;;;5043192;28;20046;-79
2023/07/08 09:40:03;;;;;;;6.53;2.42;;;27.70;95.70;;;;;;5044170;28;20052;-79
2023/07/08 09:42:32;;;;;;;5.90;2.28;;;27.80;96.30;;;;;;5039262;28;20045;-81
2023/07/08 09:45:01;;;;;;;4.80;2.30;;;27.90;96.40;;;;;;5039831;28;20678;-79
2023/07/08 09:47:32;;;;;;;10.10;2.22;;;28.10;96.20;;;;;;5040860;28;20041;-80
2023/07/08 09:49:59;;;;;;;5.07;2.35;;;28.10;95.80;;;;;;5044856;28;20462;-78
2023/07/08 09:52:25;;;;;;;8.10;2.60;;;28.20;95.90;;;;;;5035181;28;20073;-80
2023/07/08 09:54:51;;;;;;;4.93;2.30;;;28.30;96.20;;;;;;5043306;28;20586;-78
2023/07/08 09:57:29;;;;;;;4.00;2.30;;;28.30;94.80;;;;;;5040908;28;20046;-78
2023/07/08 10:00:16;;;;;;;4.85;2.40;;;28.50;95.10;;;;;;5040614;28;20045;-78
2023/07/08 10:02:46;;;;;;;4.00;2.13;;;28.60;95.20;;;;;;5036909;28;20028;-78
2023/07/08 10:05:18;;;;;;;3.85;2.38;;;28.70;95.50;;;;;;5041345;28;20444;-78
2023/07/08 10:07:45;;;;;;;3.47;2.40;;;28.60;94.10;;;;;;5041400;28;20045;-78
2023/07/08 10:10:15;;;;;;;3.63;2.42;;;28.70;95.50;;;;;;5041683;28;20072;-78
2023/07/08 10:12:49;;;;;;;5.03;2.60;;;28.90;95.30;;;;;;5036389;28;20041;-78
2023/07/08 10:15:38;;;;;;;5.28;2.75;;;29.00;94.40;;;;;;5039195;28;20092;-78
2023/07/08 10:18:04;;;;;;;3.40;3.10;;;29.00;93.90;;;;;;5041465;28;20051;-77
2023/07/08 10:20:45;;;;;;;6.60;2.80;;;29.10;95.20;;;;;;5044332;28;20029;-78
2023/07/08 10:23:29;;;;;;;4.43;2.40;;;29.00;95.20;;;;;;5037604;28;20496;-78
2023/07/08 10:26:18;;;;;;;3.10;1.95;;;29.10;95.60;;;;;;5037838;28;20076;-79
2023/07/08 10:28:45;;;;;;;8.30;2.80;;;29.30;95.10;;;;;;5039860;28;20136;-79
2023/07/08 10:31:29;;;;;;;5.60;2.30;;;29.00;93.30;;;;;;5041240;28;20399;-79
2023/07/08 10:34:20;;;;;;;2.93;2.33;;;29.10;93.00;;;;;;5040365;28;20110;-78
2023/07/08 10:37:23;;;;;;;3.72;2.25;;;28.90;92.20;;;;;;5041380;28;20037;-79
2023/07/08 10:39:57;;;;;;;4.82;2.70;;;29.00;93.30;;;;;;5039164;28;20041;-79
2023/07/08 10:42:37;;;;;;;4.30;1.90;;;28.90;94.00;;;;;;5040663;28;20084;-78
2023/07/08 10:45:35;;;;;;;2.95;2.65;;;29.10;94.00;;;;;;5038783;28;20132;-79
2023/07/08 10:48:36;;;;;;;2.60;2.30;;;29.30;93.20;;;;;;5036954;28;20045;-78
2023/07/08 10:51:27;;;;;;;6.00;2.30;;;29.40;94.20;;;;;;5001238;28;20537;-81
2023/07/08 10:54:25;;;;;;;4.97;3.25;;;29.40;93.20;;;;;;5037080;28;20044;-78
2023/07/08 10:56:54;;;;;;;5.32;2.38;;;29.40;92.00;;;;;;5037462;28;20090;-78
2023/07/08 10:59:39;;;;;;;2.80;2.28;;;29.50;92.70;;;;;;5039690;28;20099;-79
2023/07/08 11:02:25;;;;;;;4.93;2.47;;;29.50;91.40;;;;;;5040558;28;20039;-80
2023/07/08 11:05:09;;;;;;;4.50;2.60;;;29.60;91.90;;;;;;5043488;28;20448;-79
2023/07/08 11:07:50;;;;;;;6.55;2.97;;;29.60;91.30;;;;;;5039556;28;20041;-79
2023/07/08 11:10:22;;;;;;;5.88;2.80;;;29.70;92.70;;;;;;5037634;28;20045;-78
2023/07/08 11:12:54;;;;;;;8.05;2.47;;;29.70;92.00;;;;;;5038657;28;20040;-78
2023/07/08 11:15:36;;;;;;;3.00;2.13;;;29.80;93.10;;;;;;5038543;28;20208;-78
2023/07/08 11:18:25;;;;;;;7.13;2.47;;;29.60;91.20;;;;;;5039645;28;20033;-79
2023/07/08 11:21:14;;;;;;;5.43;2.53;;;29.60;90.70;;;;;;5043130;28;20404;-79
2023/07/08 11:24:07;;;;;;;5.80;2.90;;;29.60;88.90;;;;;;5037949;28;20036;-79
2023/07/08 11:26:42;;;;;;;6.47;2.28;;;29.60;90.10;;;;;;5041507;28;20400;-78
2023/07/08 11:29:20;;;;;;;5.30;2.40;;;29.80;90.10;;;;;;5038620;28;20407;-79
2023/07/08 11:31:47;;;;;;;3.40;2.55;;;29.90;90.10;;;;;;5039089;28;20148;-78
2023/07/08 11:34:15;;;;;;;3.00;2.35;;;29.90;87.60;;;;;;5040734;28;20587;-79
2023/07/08 11:36:43;;;;;;;6.55;2.67;;;29.90;86.60;;;;;;5039203;28;20500;-78
2023/07/08 11:39:34;;;;;;;5.82;2.38;;;29.90;86.70;;;;;;5040378;28;20029;-79
2023/07/08 11:42:31;;;;;;;4.05;2.53;;;30.20;90.10;;;;;;5043971;28;20085;-80
2023/07/08 11:44:59;;;;;;;7.15;3.50;;;30.30;90.80;;;;;;5036967;28;20084;-78
2023/07/08 11:47:45;;;;;;;7.22;2.75;;;30.50;90.20;;;;;;5042240;28;20044;-78
2023/07/08 11:50:29;;;;;;;4.38;2.72;;;30.60;90.20;;;;;;5040530;28;20400;-79
2023/07/08 11:53:03;;;;;;;4.65;2.75;;;30.60;89.60;;;;;;5039230;28;20056;-79
2023/07/08 11:55:36;;;;;;;4.30;2.70;;;30.60;87.00;;;;;;5038740;28;20898;-80
2023/07/08 11:58:26;;;;;;;2.60;2.40;;;30.50;88.20;;;;;;5041635;28;20044;-78
2023/07/08 12:01:12;;;;;;;4.93;2.47;;;30.50;86.90;;;;;;5036618;28;20041;-79
2023/07/08 12:03:49;;;;;;;5.15;2.92;;;30.40;86.40;;;;;;5025999;28;20041;-79
2023/07/08 12:06:27;;;;;;;4.47;2.85;;;30.50;85.00;;;;;;5039514;28;20065;-79
2023/07/08 12:08:58;;;;;;;4.18;2.50;;;30.50;85.40;;;;;;5036348;28;20041;-80
2023/07/08 12:11:30;;;;;;;4.80;3.08;;;30.50;85.90;;;;;;5043026;28;20048;-80
2023/07/08 12:13:59;;;;;;;6.03;2.35;;;30.50;83.70;;;;;;5040482;28;20076;-79
2023/07/08 12:16:25;;;;;;;3.90;2.70;;;30.60;85.80;;;;;;5041624;28;20487;-79
2023/07/08 12:18:53;;;;;;;6.18;2.92;;;30.70;85.40;;;;;;5044025;28;21556;-79
2023/07/08 12:21:18;;;;;;;4.43;2.70;;;30.80;85.60;;;;;;5045233;28;20052;-79
2023/07/08 12:23:47;;;;;;;10.40;3.78;;;30.90;83.90;;;;;;5043300;28;20041;-78
2023/07/08 12:26:13;;;;;;;8.32;3.13;;;31.00;86.60;;;;;;5042619;28;20665;-79
2023/07/08 12:28:40;;;;;;;6.18;3.28;;;31.00;86.60;;;;;;5041702;28;20110;-79
2023/07/08 12:31:21;;;;;;;4.72;3.10;;;31.10;85.00;;;;;;5041967;28;20040;-79
2023/07/08 12:33:48;;;;;;;4.32;3.47;;;31.00;83.90;;;;;;5046896;28;20130;-79
2023/07/08 12:36:17;;;;;;;5.95;2.97;;;30.90;83.60;;;;;;5042037;28;20135;-80
2023/07/08 12:38:47;;;;;;;5.47;3.78;;;31.00;84.60;;;;;;5042109;28;20029;-79
2023/07/08 12:41:23;;;;;;;5.93;3.53;;;30.80;81.80;;;;;;5042856;28;20043;-79
2023/07/08 12:43:50;;;;;;;5.20;3.47;;;31.00;82.90;;;;;;5041874;28;20102;-79
2023/07/08 12:46:18;;;;;;;8.27;3.72;;;30.90;80.40;;;;;;5045996;28;20037;-78
2023/07/08 12:48:44;;;;;;;6.75;3.63;;;31.00;82.50;;;;;;5040498;28;20050;-79
2023/07/08 12:51:20;;;;;;;8.30;3.55;;;31.10;85.00;;;;;;5042931;28;20048;-79
2023/07/08 12:53:47;;;;;;;5.82;3.90;;;31.20;83.00;;;;;;5044963;28;20040;-78
2023/07/08 12:56:13;;;;;;;6.55;3.75;;;31.20;80.60;;;;;;5044160;28;20041;-80
2023/07/08 12:58:45;;;;;;;4.07;3.70;;;31.10;81.80;;;;;;5041585;28;20045;-79